createdAt,value
2022-11-23T00:00:31.004Z,85.56
2022-11-23T00:03:16.528Z,86.17
2022-11-23T00:06:03.719Z,86.70
2022-11-23T00:08:49.483Z,85.88
2022-11-23T00:11:36.066Z,86.06
2022-11-23T00:14:19.871Z,86.81
2022-11-23T00:17:03.775Z,86.69
2022-11-23T00:19:47.597Z,86.27
2022-11-23T00:22:31.331Z,85.83
2022-11-23T00:25:16.758Z,86.01
2022-11-23T00:28:00.636Z,85.79
2022-11-23T00:30:49.380Z,85.81
2022-11-23T00:33:33.446Z,84.80
2022-11-23T00:36:18.182Z,85.38
2022-11-23T00:39:02.073Z,84.38
2022-11-23T00:41:47.335Z,84.83
2022-11-23T00:44:31.223Z,84.34
2022-11-23T00:47:15.042Z,85.24
2022-11-23T00:49:58.875Z,84.45
2022-11-23T00:52:42.766Z,85.10
2022-11-23T00:55:26.867Z,84.81
2022-11-23T00:58:12.000Z,84.76
2022-11-23T01:01:07.370Z,85.04
2022-11-23T01:03:53.924Z,86.52
2022-11-23T01:06:39.716Z,86.38
2022-11-23T01:09:26.731Z,85.19
2022-11-23T01:12:10.526Z,84.58
2022-11-23T01:14:55.809Z,84.73
2022-11-23T01:17:39.582Z,84.94
2022-11-23T01:20:25.468Z,84.16
2022-11-23T01:23:09.194Z,86.25
2022-11-23T01:25:56.808Z,84.92
2022-11-23T01:28:42.016Z,84.48
2022-11-23T01:31:28.024Z,84.00
2022-11-23T01:34:14.531Z,84.61
2022-11-23T01:36:58.422Z,85.32
2022-11-23T01:39:45.008Z,83.77
2022-11-23T01:42:44.288Z,83.56
2022-11-23T01:45:37.249Z,84.34
2022-11-23T01:48:26.566Z,85.76
2022-11-23T01:51:14.241Z,85.00
2022-11-23T01:54:01.852Z,84.38
2022-11-23T01:56:50.779Z,84.68
2022-11-23T01:59:36.187Z,85.14
2022-11-23T02:02:22.102Z,85.27
2022-11-23T02:05:12.912Z,85.13
2022-11-23T02:08:03.119Z,84.66
2022-11-23T02:10:48.096Z,84.71
2022-11-23T02:13:32.566Z,85.72
2022-11-23T02:16:17.556Z,84.68
2022-11-23T02:19:02.384Z,84.88
2022-11-23T02:21:47.918Z,83.85
2022-11-23T02:24:35.227Z,83.66
2022-11-23T02:27:21.024Z,83.11
2022-11-23T02:30:07.814Z,82.49
2022-11-23T02:32:51.903Z,82.45
2022-11-23T02:35:36.006Z,82.39
2022-11-23T02:38:20.859Z,82.53
2022-11-23T02:41:04.663Z,82.38
2022-11-23T02:43:53.071Z,81.55
2022-11-23T02:46:36.832Z,81.07
2022-11-23T02:49:20.488Z,80.17
2022-11-23T02:52:06.824Z,79.60
2022-11-23T02:54:50.465Z,79.22
2022-11-23T02:57:35.530Z,78.05
2022-11-23T03:00:20.898Z,78.34
2022-11-23T03:03:05.945Z,77.27
2022-11-23T03:05:50.182Z,76.74
2022-11-23T03:08:34.381Z,77.25
2022-11-23T03:11:18.256Z,76.73
2022-11-23T03:14:02.330Z,76.30
2022-11-23T03:16:49.860Z,77.57
2022-11-23T03:19:35.715Z,77.35
2022-11-23T03:22:19.815Z,77.23
2022-11-23T03:25:04.316Z,76.59
2022-11-23T03:27:49.057Z,78.39
2022-11-23T03:30:33.044Z,77.00
2022-11-23T03:33:18.997Z,78.28
2022-11-23T03:36:04.815Z,77.16
2022-11-23T03:38:55.063Z,77.85
2022-11-23T03:41:52.714Z,77.71
2022-11-23T03:44:39.122Z,78.37
2022-11-23T03:47:23.340Z,78.06
2022-11-23T03:50:10.132Z,77.38
2022-11-23T03:52:54.950Z,77.55
2022-11-23T03:55:39.020Z,78.37
2022-11-23T03:58:22.850Z,78.25
2022-11-23T04:01:07.794Z,77.80
2022-11-23T04:03:51.761Z,77.73
2022-11-23T04:06:48.065Z,76.34
2022-11-23T04:09:37.582Z,76.08
2022-11-23T04:12:21.345Z,75.49
2022-11-23T04:15:07.272Z,75.46
2022-11-23T04:17:52.206Z,75.48
2022-11-23T04:20:36.116Z,75.96
2022-11-23T04:23:21.746Z,74.31
2022-11-23T04:26:07.488Z,74.96
2022-11-23T04:28:57.228Z,76.53
2022-11-23T04:31:41.563Z,77.85
2022-11-23T04:34:31.257Z,78.37
2022-11-23T04:37:17.540Z,80.41
2022-11-23T04:40:03.529Z,81.51
2022-11-23T04:43:16.936Z,82.91
2022-11-23T04:46:00.904Z,83.71
2022-11-23T04:48:47.724Z,83.65
2022-11-23T04:51:33.842Z,83.85
2022-11-23T04:54:17.869Z,83.82
2022-11-23T04:57:08.894Z,83.67
2022-11-23T04:59:54.633Z,83.16
2022-11-23T05:02:40.983Z,84.46
2022-11-23T05:05:38.099Z,84.15
2022-11-23T05:08:22.473Z,83.64
2022-11-23T05:11:12.032Z,84.20
2022-11-23T05:13:57.435Z,84.60
2022-11-23T05:16:41.659Z,85.60
2022-11-23T05:19:25.876Z,84.83
2022-11-23T05:22:09.601Z,85.98
2022-11-23T05:24:56.734Z,85.20
2022-11-23T05:27:42.494Z,84.37
2022-11-23T05:30:27.983Z,84.22
2022-11-23T05:33:12.425Z,83.51
2022-11-23T05:35:57.123Z,83.90
2022-11-23T05:38:51.651Z,83.36
2022-11-23T05:41:42.581Z,83.46
2022-11-23T05:44:40.087Z,83.27
2022-11-23T05:47:30.660Z,83.49
2022-11-23T05:50:14.501Z,83.26
2022-11-23T05:53:01.499Z,83.55
2022-11-23T05:55:45.969Z,84.25
2022-11-23T05:58:30.731Z,83.55
2022-11-23T06:01:14.831Z,83.42
2022-11-23T06:04:00.496Z,83.58
2022-11-23T06:06:47.482Z,83.79
2022-11-23T06:09:32.591Z,84.14
2022-11-23T06:12:22.927Z,83.35
2022-11-23T06:15:08.401Z,83.34
2022-11-23T06:17:52.555Z,83.54
2022-11-23T06:20:40.548Z,83.02
2022-11-23T06:23:25.185Z,83.70
2022-11-23T06:26:09.465Z,83.32
2022-11-23T06:28:53.530Z,82.98
2022-11-23T06:31:37.849Z,83.94
2022-11-23T06:34:21.966Z,83.19
2022-11-23T06:37:07.499Z,82.59
2022-11-23T06:39:52.050Z,84.24
2022-11-23T06:42:39.456Z,84.63
2022-11-23T06:45:30.028Z,83.56
2022-11-23T06:48:18.202Z,83.38
2022-11-23T06:51:04.400Z,83.20
2022-11-23T06:53:50.212Z,83.70
2022-11-23T06:56:34.941Z,84.24
2022-11-23T06:59:19.834Z,83.22
2022-11-23T07:02:03.886Z,83.41
2022-11-23T07:04:52.654Z,83.97
2022-11-23T07:07:37.728Z,83.63
2022-11-23T07:10:29.225Z,83.24
2022-11-23T07:13:17.067Z,83.22
2022-11-23T07:16:01.206Z,82.92
2022-11-23T07:18:45.241Z,83.32
2022-11-23T07:21:29.305Z,83.20
2022-11-23T07:24:13.726Z,82.07
2022-11-23T07:26:59.489Z,81.15
2022-11-23T07:29:43.292Z,80.98
2022-11-23T07:32:27.893Z,79.88
2022-11-23T07:35:12.805Z,79.83
2022-11-23T07:38:00.272Z,79.51
2022-11-23T07:40:44.185Z,80.01
2022-11-23T07:43:41.934Z,79.58
2022-11-23T07:46:25.881Z,79.82
2022-11-23T07:49:09.660Z,79.50
2022-11-23T07:51:54.487Z,79.87
2022-11-23T07:54:38.323Z,79.70
2022-11-23T07:57:22.187Z,80.08
2022-11-23T08:00:09.034Z,79.05
2022-11-23T08:03:26.171Z,78.99
2022-11-23T08:05:59.726Z,78.49
2022-11-23T08:08:43.806Z,78.55
2022-11-23T08:11:27.578Z,78.88
2022-11-23T08:14:11.265Z,79.51
2022-11-23T08:16:56.633Z,78.74
2022-11-23T08:19:40.354Z,78.15
2022-11-23T08:22:24.165Z,78.83
2022-11-23T08:25:08.775Z,78.63
2022-11-23T08:27:56.424Z,78.66
2022-11-23T08:30:40.596Z,79.23
2022-11-23T08:33:25.762Z,78.85
2022-11-23T08:36:10.434Z,79.14
2022-11-23T08:38:54.389Z,78.30
2022-11-23T08:41:38.321Z,78.27
2022-11-23T08:44:22.122Z,78.06
2022-11-23T08:47:05.947Z,78.74
2022-11-23T08:49:51.202Z,78.75
2022-11-23T08:52:35.001Z,79.24
2022-11-23T08:55:18.773Z,80.02
2022-11-23T08:58:02.584Z,79.59
2022-11-23T09:00:46.567Z,79.00
2022-11-23T09:03:31.220Z,79.26
2022-11-23T09:06:16.784Z,79.56
2022-11-23T09:09:00.632Z,80.46
2022-11-23T09:11:44.282Z,80.65
2022-11-23T09:14:28.354Z,80.80
2022-11-23T09:17:12.354Z,81.04
2022-11-23T09:19:56.113Z,80.14
2022-11-23T09:22:41.206Z,80.44
2022-11-23T09:25:25.570Z,81.06
2022-11-23T09:28:09.332Z,80.63
2022-11-23T09:30:53.288Z,81.21
2022-11-23T09:33:37.134Z,81.47
2022-11-23T09:36:22.950Z,81.70
2022-11-23T09:39:08.592Z,81.41
2022-11-23T09:42:14.604Z,81.77
2022-11-23T09:45:13.295Z,83.28
2022-11-23T09:48:19.381Z,83.11
2022-11-23T09:51:06.735Z,83.00
2022-11-23T09:53:55.292Z,83.30
2022-11-23T09:56:42.593Z,83.20
2022-11-23T09:59:42.155Z,83.60
2022-11-23T10:02:29.087Z,84.17
2022-11-23T10:05:18.355Z,85.43
2022-11-23T10:08:07.156Z,85.01
2022-11-23T10:10:58.771Z,84.54
2022-11-23T10:13:46.769Z,84.87
2022-11-23T10:16:39.568Z,84.99
2022-11-23T10:19:34.021Z,84.57
2022-11-23T10:22:23.591Z,84.94
2022-11-23T10:25:17.195Z,84.83
2022-11-23T10:28:08.585Z,86.00
2022-11-23T10:30:58.054Z,84.22
2022-11-23T10:33:51.755Z,85.04
2022-11-23T10:36:36.736Z,84.95
2022-11-23T10:39:24.186Z,84.80
2022-11-23T10:42:20.939Z,84.29
2022-11-23T10:45:05.912Z,84.09
2022-11-23T10:47:56.077Z,85.24
2022-11-23T10:50:41.515Z,85.94
2022-11-23T10:53:28.357Z,85.45
2022-11-23T10:56:14.542Z,85.10
2022-11-23T10:58:58.683Z,85.02
2022-11-23T11:01:42.496Z,83.59
2022-11-23T11:04:30.858Z,83.20
2022-11-23T11:07:25.170Z,82.42
2022-11-23T11:10:38.869Z,84.29
2022-11-23T11:13:24.723Z,83.65
2022-11-23T11:16:21.131Z,82.91
2022-11-23T11:19:26.966Z,82.34
2022-11-23T11:22:30.145Z,82.67
2022-11-23T11:25:29.327Z,81.92
2022-11-23T11:28:23.938Z,83.19
2022-11-23T11:31:45.331Z,82.80
2022-11-23T11:34:36.493Z,82.98
2022-11-23T11:37:33.702Z,81.56
2022-11-23T11:40:29.901Z,83.58
2022-11-23T11:43:19.345Z,82.66
2022-11-23T11:46:28.773Z,83.11
2022-11-23T11:49:17.463Z,82.54
2022-11-23T11:52:07.352Z,83.96
2022-11-23T11:54:57.111Z,85.11
2022-11-23T11:57:46.829Z,84.38
2022-11-23T12:00:34.696Z,83.80
2022-11-23T12:03:28.184Z,83.34
2022-11-23T12:06:25.130Z,82.74
2022-11-23T12:09:16.730Z,83.25
2022-11-23T12:12:02.317Z,82.74
2022-11-23T12:14:47.078Z,81.80
2022-11-23T12:18:16.081Z,81.28
2022-11-23T12:21:04.955Z,82.80
2022-11-23T12:23:57.740Z,82.30
2022-11-23T12:26:51.953Z,83.30
2022-11-23T12:29:56.395Z,83.44
2022-11-23T12:32:48.622Z,83.48
2022-11-23T12:35:55.318Z,82.36
2022-11-23T12:38:47.367Z,82.24
2022-11-23T12:41:40.903Z,82.51
2022-11-23T12:45:05.010Z,81.94
2022-11-23T12:48:00.349Z,80.78
2022-11-23T12:50:50.870Z,81.25
2022-11-23T12:53:49.198Z,80.56
2022-11-23T12:56:54.736Z,80.85
2022-11-23T12:59:46.425Z,80.44
2022-11-23T13:03:03.572Z,79.59
2022-11-23T13:06:19.946Z,80.41
2022-11-23T13:09:26.055Z,80.53
2022-11-23T13:12:25.699Z,79.80
2022-11-23T13:15:28.519Z,79.75
2022-11-23T13:18:22.470Z,80.01
2022-11-23T13:21:19.432Z,78.60
2022-11-23T13:24:03.889Z,79.55
2022-11-23T13:26:48.505Z,79.14
2022-11-23T13:29:58.743Z,79.64
2022-11-23T13:32:56.004Z,79.72
2022-11-23T13:35:57.539Z,79.77
2022-11-23T13:38:43.862Z,79.88
2022-11-23T13:42:00.705Z,79.95
2022-11-23T13:44:44.675Z,80.23
2022-11-23T13:47:28.725Z,79.34
2022-11-23T13:50:20.559Z,79.15
2022-11-23T13:53:20.361Z,80.06
2022-11-23T13:56:24.180Z,78.91
2022-11-23T13:59:33.617Z,78.65
2022-11-23T14:02:27.876Z,79.59
2022-11-23T14:05:57.264Z,78.96
2022-11-23T14:08:43.564Z,79.41
2022-11-23T14:11:28.454Z,79.58
2022-11-23T14:14:20.197Z,79.85
2022-11-23T14:17:25.031Z,79.91
2022-11-23T14:20:26.355Z,79.71
2022-11-23T14:23:30.676Z,80.18
2022-11-23T14:26:26.250Z,80.35
2022-11-23T14:29:28.543Z,79.69
2022-11-23T14:32:33.748Z,80.98
2022-11-23T14:35:28.027Z,79.98
2022-11-23T14:38:42.797Z,79.83
2022-11-23T14:41:30.072Z,79.95
2022-11-23T14:44:17.177Z,78.97
2022-11-23T14:47:01.927Z,78.89
2022-11-23T14:49:53.609Z,78.88
2022-11-23T14:52:38.265Z,79.78
2022-11-23T14:55:25.101Z,79.56
2022-11-23T14:58:17.258Z,79.34
2022-11-23T15:01:02.209Z,80.29
2022-11-23T15:03:56.402Z,80.24
2022-11-23T15:06:45.920Z,79.79
2022-11-23T15:09:43.932Z,79.98
2022-11-23T15:12:29.138Z,80.47
2022-11-23T15:15:21.052Z,80.48
2022-11-23T15:18:05.037Z,80.25
2022-11-23T15:20:48.878Z,80.47
2022-11-23T15:23:36.877Z,80.62
2022-11-23T15:26:42.363Z,80.29
2022-11-23T15:29:35.343Z,80.90
2022-11-23T15:32:34.303Z,80.58
2022-11-23T15:35:18.949Z,80.74
2022-11-23T15:38:03.537Z,81.14
2022-11-23T15:40:49.269Z,80.45
2022-11-23T15:43:33.033Z,79.71
2022-11-23T15:46:17.016Z,81.38
2022-11-23T15:49:05.589Z,81.10
2022-11-23T15:51:49.583Z,81.46
2022-11-23T15:54:37.838Z,80.74
2022-11-23T15:57:26.413Z,81.44
2022-11-23T16:00:23.713Z,81.52
2022-11-23T16:03:30.283Z,80.97
2022-11-23T16:06:29.498Z,80.23
2022-11-23T16:09:50.607Z,80.45
2022-11-23T16:12:47.709Z,80.36
2022-11-23T16:15:42.481Z,80.39
2022-11-23T16:18:28.060Z,80.87
2022-11-23T16:21:16.766Z,80.59
2022-11-23T16:24:02.007Z,80.86
2022-11-23T16:26:45.874Z,80.84
2022-11-23T16:29:35.264Z,80.95
2022-11-23T16:32:25.341Z,81.31
2022-11-23T16:35:18.563Z,82.03
2022-11-23T16:38:02.229Z,81.98
2022-11-23T16:40:48.228Z,81.79
2022-11-23T16:43:32.423Z,81.96
2022-11-23T16:46:16.182Z,81.16
2022-11-23T16:49:00.734Z,81.71
2022-11-23T16:51:44.966Z,80.53
2022-11-23T16:54:28.749Z,80.41
2022-11-23T16:57:21.451Z,80.78
2022-11-23T17:00:07.168Z,79.52
2022-11-23T17:02:51.141Z,80.04
2022-11-23T17:05:35.015Z,80.38
2022-11-23T17:08:23.583Z,81.07
2022-11-23T17:11:13.799Z,80.92
2022-11-23T17:13:59.833Z,80.43
2022-11-23T17:16:44.432Z,80.78
2022-11-23T17:19:28.192Z,80.64
2022-11-23T17:22:12.023Z,80.59
2022-11-23T17:24:55.951Z,80.95
2022-11-23T17:27:42.443Z,80.61
2022-11-23T17:30:27.911Z,80.76
2022-11-23T17:33:12.853Z,80.67
2022-11-23T17:35:59.925Z,81.02
2022-11-23T17:38:47.177Z,81.10
2022-11-23T17:41:30.924Z,80.59
2022-11-23T17:44:15.164Z,82.11
2022-11-23T17:47:01.783Z,81.09
2022-11-23T17:49:45.714Z,80.81
2022-11-23T17:52:29.445Z,80.43
2022-11-23T17:55:14.263Z,80.48
2022-11-23T17:57:58.109Z,80.10
2022-11-23T18:00:41.905Z,80.29
2022-11-23T18:03:27.161Z,79.85
2022-11-23T18:06:15.307Z,80.47
2022-11-23T18:08:59.137Z,80.16
2022-11-23T18:11:42.930Z,80.34
2022-11-23T18:14:28.981Z,80.05
2022-11-23T18:17:12.858Z,79.73
2022-11-23T18:19:58.316Z,79.48
2022-11-23T18:22:42.150Z,79.38
2022-11-23T18:25:26.138Z,79.51
2022-11-23T18:28:09.888Z,79.21
2022-11-23T18:30:53.644Z,78.96
2022-11-23T18:33:37.772Z,79.28
2022-11-23T18:36:23.681Z,79.65
2022-11-23T18:39:07.495Z,79.49
2022-11-23T18:41:51.260Z,79.46
2022-11-23T18:44:35.323Z,79.58
2022-11-23T18:47:19.313Z,79.45
2022-11-23T18:50:06.449Z,79.23
2022-11-23T18:52:52.303Z,79.30
2022-11-23T18:55:36.431Z,78.81
2022-11-23T18:58:20.510Z,78.38
2022-11-23T19:01:12.347Z,78.72
2022-11-23T19:03:57.223Z,78.68
2022-11-23T19:06:41.156Z,79.00
2022-11-23T19:09:26.694Z,78.05
2022-11-23T19:12:11.023Z,78.84
2022-11-23T19:14:55.090Z,79.00
2022-11-23T19:17:39.455Z,78.44
2022-11-23T19:20:24.060Z,79.08
2022-11-23T19:23:07.845Z,79.05
2022-11-23T19:25:53.111Z,78.74
2022-11-23T19:28:37.639Z,78.33
2022-11-23T19:31:23.813Z,78.70
2022-11-23T19:34:10.616Z,78.75
2022-11-23T19:36:54.724Z,79.65
2022-11-23T19:39:38.625Z,79.10
2022-11-23T19:42:24.098Z,79.40
2022-11-23T19:45:09.495Z,79.66
2022-11-23T19:47:53.581Z,78.97
2022-11-23T19:50:37.749Z,79.10
2022-11-23T19:53:21.958Z,79.08
2022-11-23T19:56:08.140Z,79.40
2022-11-23T19:58:54.787Z,79.67
2022-11-23T20:01:39.199Z,79.39
2022-11-23T20:04:23.087Z,79.33
2022-11-23T20:07:07.136Z,78.89
2022-11-23T20:09:51.419Z,79.19
2022-11-23T20:12:35.383Z,79.49
2022-11-23T20:15:20.728Z,79.73
2022-11-23T20:18:04.714Z,79.52
2022-11-23T20:20:49.154Z,80.48
2022-11-23T20:23:33.098Z,80.08
2022-11-23T20:26:19.534Z,80.50
2022-11-23T20:29:04.608Z,80.92
2022-11-23T20:31:51.836Z,80.75
2022-11-23T20:34:36.088Z,80.66
2022-11-23T20:37:20.078Z,80.71
2022-11-23T20:40:04.249Z,80.00
2022-11-23T20:42:48.222Z,80.67
2022-11-23T20:45:32.148Z,80.84
2022-11-23T20:48:17.504Z,80.77
2022-11-23T20:51:03.955Z,80.71
2022-11-23T20:53:52.572Z,80.00
2022-11-23T20:56:36.693Z,79.50
2022-11-23T20:59:20.967Z,79.52
2022-11-23T21:02:04.829Z,79.71
2022-11-23T21:04:50.405Z,79.20
2022-11-23T21:07:34.146Z,79.84
2022-11-23T21:10:35.528Z,79.87
2022-11-23T21:13:48.990Z,80.03
2022-11-23T21:16:33.748Z,80.43
2022-11-23T21:19:17.568Z,80.39
2022-11-23T21:22:06.758Z,80.22
2022-11-23T21:24:50.609Z,80.24
2022-11-23T21:27:34.610Z,80.76
2022-11-23T21:30:18.593Z,80.02
2022-11-23T21:33:02.319Z,79.98
2022-11-23T21:35:46.047Z,80.68
2022-11-23T21:38:35.159Z,80.32
2022-11-23T21:41:19.236Z,80.21
2022-11-23T21:44:02.992Z,80.05
2022-11-23T21:46:49.735Z,80.64
2022-11-23T21:49:33.669Z,81.22
2022-11-23T21:52:17.421Z,81.22
2022-11-23T21:55:02.765Z,81.56
2022-11-23T21:57:47.055Z,81.65
2022-11-23T22:00:31.593Z,81.65
2022-11-23T22:03:15.514Z,81.00
2022-11-23T22:05:59.921Z,81.36
2022-11-23T22:08:45.587Z,80.83
2022-11-23T22:11:32.547Z,81.45
2022-11-23T22:14:19.401Z,80.84
2022-11-23T22:17:04.213Z,82.23
2022-11-23T22:19:48.602Z,82.90
2022-11-23T22:22:32.313Z,83.63
2022-11-23T22:25:16.381Z,84.02
2022-11-23T22:28:02.024Z,83.87
2022-11-23T22:30:53.752Z,84.40
2022-11-23T22:33:38.139Z,83.89
2022-11-23T22:36:23.592Z,84.40
2022-11-23T22:39:08.397Z,84.45
2022-11-23T22:41:52.336Z,84.21
2022-11-23T22:44:38.443Z,84.50
2022-11-23T22:47:22.461Z,84.93
2022-11-23T22:50:07.365Z,85.50
2022-11-23T22:52:51.113Z,85.81
2022-11-23T22:55:35.354Z,85.96
2022-11-23T22:58:19.643Z,86.66
2022-11-23T23:01:08.286Z,87.43
2022-11-23T23:03:55.974Z,86.54
2022-11-23T23:06:39.934Z,87.98
2022-11-23T23:09:23.684Z,87.13
2022-11-23T23:12:07.848Z,86.66
2022-11-23T23:14:51.728Z,86.22
2022-11-23T23:17:36.920Z,86.03
2022-11-23T23:20:20.634Z,86.24
2022-11-23T23:23:04.799Z,86.52
2022-11-23T23:25:48.665Z,86.61
2022-11-23T23:28:32.483Z,86.99
2022-11-23T23:31:18.156Z,87.31
2022-11-23T23:34:03.443Z,87.56
2022-11-23T23:36:47.280Z,88.22
2022-11-23T23:39:31.043Z,87.99
2022-11-23T23:42:15.009Z,87.65
2022-11-23T23:44:59.676Z,87.89
2022-11-23T23:47:43.710Z,87.99
2022-11-23T23:50:28.861Z,88.32
2022-11-23T23:53:12.828Z,88.22
2022-11-23T23:55:57.973Z,89.71
2022-11-23T23:58:42.670Z,88.33
